sensor_id;sensor_type;location;lat;lon;timestamp;P1;durP1;ratioP1;P2;durP2;ratioP2
9052;SDS011;4561;47.450;7.516;2023-03-04T00:02:12;59.10;;;45.93;;
9052;SDS011;4561;47.450;7.516;2023-03-04T00:05:34;61.83;;;45.87;;
9052;SDS011;4561;47.450;7.516;2023-03-04T00:08:55;59.30;;;46.40;;
9052;SDS011;4561;47.450;7.516;2023-03-04T00:12:16;66.47;;;50.80;;
9052;SDS011;4561;47.450;7.516;2023-03-04T00:15:39;68.27;;;51.30;;
9052;SDS011;4561;47.450;7.516;2023-03-04T00:19:02;63.23;;;48.07;;
9052;SDS011;4561;47.450;7.516;2023-03-04T00:22:23;66.33;;;49.27;;
9052;SDS011;4561;47.450;7.516;2023-03-04T00:25:43;59.73;;;46.03;;
9052;SDS011;4561;47.450;7.516;2023-03-04T00:29:03;63.53;;;48.40;;
9052;SDS011;4561;47.450;7.516;2023-03-04T00:32:24;63.77;;;48.10;;
9052;SDS011;4561;47.450;7.516;2023-03-04T00:35:47;66.27;;;48.33;;
9052;SDS011;4561;47.450;7.516;2023-03-04T00:39:08;62.03;;;48.40;;
9052;SDS011;4561;47.450;7.516;2023-03-04T00:42:28;65.93;;;49.57;;
9052;SDS011;4561;47.450;7.516;2023-03-04T00:45:48;63.30;;;50.27;;
9052;SDS011;4561;47.450;7.516;2023-03-04T00:49:09;64.00;;;50.00;;
9052;SDS011;4561;47.450;7.516;2023-03-04T00:52:29;69.03;;;50.37;;
9052;SDS011;4561;47.450;7.516;2023-03-04T00:55:52;64.70;;;49.70;;
9052;SDS011;4561;47.450;7.516;2023-03-04T00:59:12;70.20;;;52.43;;
9052;SDS011;4561;47.450;7.516;2023-03-04T01:02:32;70.70;;;55.40;;
9052;SDS011;4561;47.450;7.516;2023-03-04T01:05:53;66.30;;;52.27;;
9052;SDS011;4561;47.450;7.516;2023-03-04T01:09:13;67.20;;;52.80;;
9052;SDS011;4561;47.450;7.516;2023-03-04T01:12:36;74.80;;;54.70;;
9052;SDS011;4561;47.450;7.516;2023-03-04T01:15:59;72.43;;;55.33;;
9052;SDS011;4561;47.450;7.516;2023-03-04T01:19:21;71.30;;;52.93;;
9052;SDS011;4561;47.450;7.516;2023-03-04T01:22:42;70.00;;;51.77;;
9052;SDS011;4561;47.450;7.516;2023-03-04T01:26:02;73.33;;;54.97;;
9052;SDS011;4561;47.450;7.516;2023-03-04T01:29:23;73.70;;;52.60;;
9052;SDS011;4561;47.450;7.516;2023-03-04T01:32:43;74.63;;;52.93;;
9052;SDS011;4561;47.450;7.516;2023-03-04T01:36:03;70.77;;;50.97;;
9052;SDS011;4561;47.450;7.516;2023-03-04T01:39:24;65.70;;;50.60;;
9052;SDS011;4561;47.450;7.516;2023-03-04T01:42:44;69.10;;;52.40;;
9052;SDS011;4561;47.450;7.516;2023-03-04T01:46:05;68.87;;;51.20;;
9052;SDS011;4561;47.450;7.516;2023-03-04T01:49:25;68.10;;;52.40;;
9052;SDS011;4561;47.450;7.516;2023-03-04T01:52:46;65.73;;;49.60;;
9052;SDS011;4561;47.450;7.516;2023-03-04T01:56:11;70.83;;;52.03;;
9052;SDS011;4561;47.450;7.516;2023-03-04T01:59:39;67.27;;;49.50;;
9052;SDS011;4561;47.450;7.516;2023-03-04T02:03:00;68.00;;;49.70;;
9052;SDS011;4561;47.450;7.516;2023-03-04T02:06:32;61.43;;;47.70;;
9052;SDS011;4561;47.450;7.516;2023-03-04T02:09:54;68.70;;;51.43;;
9052;SDS011;4561;47.450;7.516;2023-03-04T02:13:14;68.80;;;50.40;;
9052;SDS011;4561;47.450;7.516;2023-03-04T02:16:35;73.07;;;52.30;;
9052;SDS011;4561;47.450;7.516;2023-03-04T02:19:57;71.53;;;51.33;;
9052;SDS011;4561;47.450;7.516;2023-03-04T02:23:22;64.47;;;49.10;;
9052;SDS011;4561;47.450;7.516;2023-03-04T02:26:52;67.53;;;49.37;;
9052;SDS011;4561;47.450;7.516;2023-03-04T02:30:18;67.93;;;50.63;;
9052;SDS011;4561;47.450;7.516;2023-03-04T02:33:39;71.03;;;50.57;;
9052;SDS011;4561;47.450;7.516;2023-03-04T02:37:00;71.43;;;51.77;;
9052;SDS011;4561;47.450;7.516;2023-03-04T02:40:26;70.10;;;50.00;;
9052;SDS011;4561;47.450;7.516;2023-03-04T02:43:49;69.77;;;52.37;;
9052;SDS011;4561;47.450;7.516;2023-03-04T02:47:11;70.83;;;51.43;;
9052;SDS011;4561;47.450;7.516;2023-03-04T02:50:38;69.83;;;50.97;;
9052;SDS011;4561;47.450;7.516;2023-03-04T02:54:01;64.40;;;49.77;;
9052;SDS011;4561;47.450;7.516;2023-03-04T02:57:21;72.73;;;51.97;;
9052;SDS011;4561;47.450;7.516;2023-03-04T03:00:42;69.13;;;51.50;;
9052;SDS011;4561;47.450;7.516;2023-03-04T03:04:04;68.00;;;50.30;;
9052;SDS011;4561;47.450;7.516;2023-03-04T03:07:27;65.77;;;49.53;;
9052;SDS011;4561;47.450;7.516;2023-03-04T03:10:47;71.63;;;51.13;;
9052;SDS011;4561;47.450;7.516;2023-03-04T03:14:08;68.60;;;50.83;;
9052;SDS011;4561;47.450;7.516;2023-03-04T03:17:33;65.13;;;48.73;;
9052;SDS011;4561;47.450;7.516;2023-03-04T03:20:53;64.63;;;50.17;;
9052;SDS011;4561;47.450;7.516;2023-03-04T03:24:16;66.07;;;49.33;;
9052;SDS011;4561;47.450;7.516;2023-03-04T03:27:39;69.00;;;49.07;;
9052;SDS011;4561;47.450;7.516;2023-03-04T03:31:00;63.77;;;49.57;;
9052;SDS011;4561;47.450;7.516;2023-03-04T03:34:20;69.40;;;50.90;;
9052;SDS011;4561;47.450;7.516;2023-03-04T03:37:47;67.87;;;49.60;;
9052;SDS011;4561;47.450;7.516;2023-03-04T03:41:11;71.03;;;51.73;;
9052;SDS011;4561;47.450;7.516;2023-03-04T03:44:31;66.13;;;48.93;;
9052;SDS011;4561;47.450;7.516;2023-03-04T03:47:54;69.07;;;52.17;;
9052;SDS011;4561;47.450;7.516;2023-03-04T03:51:14;69.27;;;51.63;;
9052;SDS011;4561;47.450;7.516;2023-03-04T03:54:34;73.60;;;51.27;;
9052;SDS011;4561;47.450;7.516;2023-03-04T03:57:55;70.50;;;50.63;;
9052;SDS011;4561;47.450;7.516;2023-03-04T04:01:18;68.30;;;50.70;;
9052;SDS011;4561;47.450;7.516;2023-03-04T04:04:38;70.43;;;51.67;;
9052;SDS011;4561;47.450;7.516;2023-03-04T04:07:59;71.20;;;51.53;;
9052;SDS011;4561;47.450;7.516;2023-03-04T04:11:19;70.07;;;52.07;;
9052;SDS011;4561;47.450;7.516;2023-03-04T04:14:40;69.23;;;53.03;;
9052;SDS011;4561;47.450;7.516;2023-03-04T04:18:00;79.83;;;54.00;;
9052;SDS011;4561;47.450;7.516;2023-03-04T04:21:21;69.87;;;51.13;;
9052;SDS011;4561;47.450;7.516;2023-03-04T04:24:41;71.80;;;53.97;;
9052;SDS011;4561;47.450;7.516;2023-03-04T04:28:02;73.13;;;53.33;;
9052;SDS011;4561;47.450;7.516;2023-03-04T04:31:22;77.20;;;55.70;;
9052;SDS011;4561;47.450;7.516;2023-03-04T04:34:45;74.27;;;53.83;;
9052;SDS011;4561;47.450;7.516;2023-03-04T04:38:06;72.40;;;54.33;;
9052;SDS011;4561;47.450;7.516;2023-03-04T04:41:30;79.50;;;56.70;;
9052;SDS011;4561;47.450;7.516;2023-03-04T04:44:54;76.53;;;56.07;;
9052;SDS011;4561;47.450;7.516;2023-03-04T04:48:16;68.30;;;52.07;;
9052;SDS011;4561;47.450;7.516;2023-03-04T04:51:36;77.13;;;54.23;;
9052;SDS011;4561;47.450;7.516;2023-03-04T04:54:57;69.70;;;54.10;;
9052;SDS011;4561;47.450;7.516;2023-03-04T04:58:20;72.90;;;54.17;;
9052;SDS011;4561;47.450;7.516;2023-03-04T05:01:43;70.80;;;51.50;;
9052;SDS011;4561;47.450;7.516;2023-03-04T05:05:06;63.83;;;48.07;;
9052;SDS011;4561;47.450;7.516;2023-03-04T05:08:27;67.37;;;49.27;;
9052;SDS011;4561;47.450;7.516;2023-03-04T05:11:50;70.30;;;52.33;;
9052;SDS011;4561;47.450;7.516;2023-03-04T05:15:10;74.17;;;51.73;;
9052;SDS011;4561;47.450;7.516;2023-03-04T05:18:31;71.43;;;49.57;;
9052;SDS011;4561;47.450;7.516;2023-03-04T05:21:51;67.00;;;50.33;;
9052;SDS011;4561;47.450;7.516;2023-03-04T05:25:14;66.30;;;49.00;;
9052;SDS011;4561;47.450;7.516;2023-03-04T05:28:34;69.90;;;51.43;;
9052;SDS011;4561;47.450;7.516;2023-03-04T05:31:55;73.80;;;51.53;;
9052;SDS011;4561;47.450;7.516;2023-03-04T05:35:15;75.17;;;51.93;;
9052;SDS011;4561;47.450;7.516;2023-03-04T05:38:36;66.83;;;49.33;;
9052;SDS011;4561;47.450;7.516;2023-03-04T05:41:56;72.97;;;51.40;;
9052;SDS011;4561;47.450;7.516;2023-03-04T05:45:19;70.53;;;50.13;;
9052;SDS011;4561;47.450;7.516;2023-03-04T05:48:40;77.50;;;52.67;;
9052;SDS011;4561;47.450;7.516;2023-03-04T05:52:00;67.50;;;50.67;;
9052;SDS011;4561;47.450;7.516;2023-03-04T05:55:20;70.07;;;51.57;;
9052;SDS011;4561;47.450;7.516;2023-03-04T05:58:43;79.00;;;55.37;;
9052;SDS011;4561;47.450;7.516;2023-03-04T06:02:06;80.07;;;55.00;;
9052;SDS011;4561;47.450;7.516;2023-03-04T06:05:26;79.70;;;55.73;;
9052;SDS011;4561;47.450;7.516;2023-03-04T06:08:47;79.10;;;57.27;;
9052;SDS011;4561;47.450;7.516;2023-03-04T06:12:10;77.77;;;55.33;;
9052;SDS011;4561;47.450;7.516;2023-03-04T06:15:31;76.23;;;55.73;;
9052;SDS011;4561;47.450;7.516;2023-03-04T06:18:52;98.13;;;64.80;;
9052;SDS011;4561;47.450;7.516;2023-03-04T06:22:12;72.57;;;53.50;;
9052;SDS011;4561;47.450;7.516;2023-03-04T06:25:32;73.83;;;52.43;;
9052;SDS011;4561;47.450;7.516;2023-03-04T06:28:58;70.63;;;50.83;;
9052;SDS011;4561;47.450;7.516;2023-03-04T06:32:19;66.03;;;46.07;;
9052;SDS011;4561;47.450;7.516;2023-03-04T06:35:41;67.13;;;47.90;;
9052;SDS011;4561;47.450;7.516;2023-03-04T06:39:04;62.67;;;45.17;;
9052;SDS011;4561;47.450;7.516;2023-03-04T06:42:26;63.20;;;47.53;;
9052;SDS011;4561;47.450;7.516;2023-03-04T06:45:46;59.93;;;44.33;;
9052;SDS011;4561;47.450;7.516;2023-03-04T06:49:06;65.57;;;47.40;;
9052;SDS011;4561;47.450;7.516;2023-03-04T06:52:29;54.20;;;41.70;;
9052;SDS011;4561;47.450;7.516;2023-03-04T06:55:52;55.67;;;42.03;;
9052;SDS011;4561;47.450;7.516;2023-03-04T06:59:12;54.83;;;41.27;;
9052;SDS011;4561;47.450;7.516;2023-03-04T07:02:35;53.13;;;39.63;;
9052;SDS011;4561;47.450;7.516;2023-03-04T07:05:56;58.00;;;40.03;;
9052;SDS011;4561;47.450;7.516;2023-03-04T07:09:16;49.20;;;39.33;;
9052;SDS011;4561;47.450;7.516;2023-03-04T07:12:37;55.80;;;38.53;;
9052;SDS011;4561;47.450;7.516;2023-03-04T07:15:58;57.23;;;41.70;;
9052;SDS011;4561;47.450;7.516;2023-03-04T07:19:21;51.67;;;38.80;;
9052;SDS011;4561;47.450;7.516;2023-03-04T07:22:44;49.13;;;37.23;;
9052;SDS011;4561;47.450;7.516;2023-03-04T07:26:04;45.70;;;35.63;;
9052;SDS011;4561;47.450;7.516;2023-03-04T07:29:25;43.07;;;31.73;;
9052;SDS011;4561;47.450;7.516;2023-03-04T07:32:47;45.53;;;33.70;;
9052;SDS011;4561;47.450;7.516;2023-03-04T07:36:08;42.07;;;33.23;;
9052;SDS011;4561;47.450;7.516;2023-03-04T07:39:28;43.03;;;32.60;;
9052;SDS011;4561;47.450;7.516;2023-03-04T07:42:52;43.87;;;33.93;;
9052;SDS011;4561;47.450;7.516;2023-03-04T07:46:13;41.40;;;32.97;;
9052;SDS011;4561;47.450;7.516;2023-03-04T07:49:34;40.40;;;31.10;;
9052;SDS011;4561;47.450;7.516;2023-03-04T07:52:55;41.60;;;31.60;;
9052;SDS011;4561;47.450;7.516;2023-03-04T07:56:22;37.17;;;31.43;;
9052;SDS011;4561;47.450;7.516;2023-03-04T07:59:44;40.47;;;32.17;;
9052;SDS011;4561;47.450;7.516;2023-03-04T08:03:05;40.83;;;34.07;;
9052;SDS011;4561;47.450;7.516;2023-03-04T08:06:25;44.50;;;34.87;;
9052;SDS011;4561;47.450;7.516;2023-03-04T08:09:48;40.90;;;34.00;;
9052;SDS011;4561;47.450;7.516;2023-03-04T08:13:09;39.80;;;32.83;;
9052;SDS011;4561;47.450;7.516;2023-03-04T08:16:29;40.57;;;33.40;;
9052;SDS011;4561;47.450;7.516;2023-03-04T08:19:52;44.63;;;35.17;;
9052;SDS011;4561;47.450;7.516;2023-03-04T08:23:13;45.83;;;36.07;;
9052;SDS011;4561;47.450;7.516;2023-03-04T08:26:35;43.47;;;36.30;;
9052;SDS011;4561;47.450;7.516;2023-03-04T08:30:05;48.27;;;38.47;;
9052;SDS011;4561;47.450;7.516;2023-03-04T08:33:26;48.80;;;37.30;;
9052;SDS011;4561;47.450;7.516;2023-03-04T08:36:47;44.57;;;37.17;;
9052;SDS011;4561;47.450;7.516;2023-03-04T08:40:10;42.57;;;37.03;;
9052;SDS011;4561;47.450;7.516;2023-03-04T08:43:31;45.03;;;36.50;;
9052;SDS011;4561;47.450;7.516;2023-03-04T08:46:55;45.33;;;37.77;;
9052;SDS011;4561;47.450;7.516;2023-03-04T08:50:15;42.00;;;36.53;;
9052;SDS011;4561;47.450;7.516;2023-03-04T08:53:36;41.87;;;34.80;;
9052;SDS011;4561;47.450;7.516;2023-03-04T08:56:57;41.17;;;36.20;;
9052;SDS011;4561;47.450;7.516;2023-03-04T09:00:17;40.63;;;34.20;;
9052;SDS011;4561;47.450;7.516;2023-03-04T09:03:38;41.77;;;35.57;;
9052;SDS011;4561;47.450;7.516;2023-03-04T09:06:59;39.43;;;34.07;;
9052;SDS011;4561;47.450;7.516;2023-03-04T09:10:19;38.97;;;33.07;;
9052;SDS011;4561;47.450;7.516;2023-03-04T09:13:40;40.80;;;32.80;;
9052;SDS011;4561;47.450;7.516;2023-03-04T09:17:03;36.63;;;32.03;;
9052;SDS011;4561;47.450;7.516;2023-03-04T09:20:24;38.13;;;33.10;;
9052;SDS011;4561;47.450;7.516;2023-03-04T09:23:45;42.97;;;33.40;;
9052;SDS011;4561;47.450;7.516;2023-03-04T09:27:05;42.80;;;34.67;;
9052;SDS011;4561;47.450;7.516;2023-03-04T09:30:25;36.07;;;32.20;;
9052;SDS011;4561;47.450;7.516;2023-03-04T09:33:46;38.47;;;32.93;;
9052;SDS011;4561;47.450;7.516;2023-03-04T09:37:06;38.63;;;33.23;;
9052;SDS011;4561;47.450;7.516;2023-03-04T09:40:28;40.50;;;33.17;;
9052;SDS011;4561;47.450;7.516;2023-03-04T09:43:51;40.63;;;32.77;;
9052;SDS011;4561;47.450;7.516;2023-03-04T09:47:16;36.60;;;31.90;;
9052;SDS011;4561;47.450;7.516;2023-03-04T09:50:40;36.83;;;30.57;;
9052;SDS011;4561;47.450;7.516;2023-03-04T10:01:55;35.87;;;31.53;;
9052;SDS011;4561;47.450;7.516;2023-03-04T10:05:19;32.57;;;27.80;;
9052;SDS011;4561;47.450;7.516;2023-03-04T10:08:51;30.23;;;26.97;;
9052;SDS011;4561;47.450;7.516;2023-03-04T10:12:16;32.00;;;28.63;;
9052;SDS011;4561;47.450;7.516;2023-03-04T10:15:43;33.13;;;28.10;;
9052;SDS011;4561;47.450;7.516;2023-03-04T10:19:14;33.83;;;29.30;;
9052;SDS011;4561;47.450;7.516;2023-03-04T10:22:45;31.97;;;28.07;;
9052;SDS011;4561;47.450;7.516;2023-03-04T10:26:14;29.73;;;26.53;;
9052;SDS011;4561;47.450;7.516;2023-03-04T10:29:35;29.23;;;26.03;;
9052;SDS011;4561;47.450;7.516;2023-03-04T10:32:56;28.20;;;25.20;;
9052;SDS011;4561;47.450;7.516;2023-03-04T10:39:49;29.20;;;26.30;;
9052;SDS011;4561;47.450;7.516;2023-03-04T10:43:13;28.23;;;25.42;;
9052;SDS011;4561;47.450;7.516;2023-03-04T10:46:42;26.23;;;23.65;;
9052;SDS011;4561;47.450;7.516;2023-03-04T10:50:04;28.70;;;25.95;;
9052;SDS011;4561;47.450;7.516;2023-03-04T10:53:32;27.02;;;24.42;;
9052;SDS011;4561;47.450;7.516;2023-03-04T11:00:25;28.15;;;25.48;;
9052;SDS011;4561;47.450;7.516;2023-03-04T11:03:50;27.55;;;24.92;;
9052;SDS011;4561;47.450;7.516;2023-03-04T11:07:14;27.88;;;25.38;;
9052;SDS011;4561;47.450;7.516;2023-03-04T11:10:40;26.92;;;24.30;;
9052;SDS011;4561;47.450;7.516;2023-03-04T11:14:03;25.48;;;23.00;;
9052;SDS011;4561;47.450;7.516;2023-03-04T11:17:51;25.52;;;23.13;;
9052;SDS011;4561;47.450;7.516;2023-03-04T11:21:14;26.67;;;24.17;;
9052;SDS011;4561;47.450;7.516;2023-03-04T11:24:37;24.05;;;21.85;;
9052;SDS011;4561;47.450;7.516;2023-03-04T11:27:59;21.02;;;19.13;;
9052;SDS011;4561;47.450;7.516;2023-03-04T11:35:41;22.02;;;19.92;;
9052;SDS011;4561;47.450;7.516;2023-03-04T11:39:07;24.20;;;21.80;;
9052;SDS011;4561;47.450;7.516;2023-03-04T12:01:08;24.33;;;20.30;;
9052;SDS011;4561;47.450;7.516;2023-03-04T12:23:14;24.33;;;20.43;;
9052;SDS011;4561;47.450;7.516;2023-03-04T12:26:54;26.73;;;21.77;;
9052;SDS011;4561;47.450;7.516;2023-03-04T12:34:08;28.37;;;23.43;;
9052;SDS011;4561;47.450;7.516;2023-03-04T12:41:59;32.03;;;24.53;;
9052;SDS011;4561;47.450;7.516;2023-03-04T12:45:43;29.43;;;23.30;;
9052;SDS011;4561;47.450;7.516;2023-03-04T13:00:40;29.90;;;23.70;;
9052;SDS011;4561;47.450;7.516;2023-03-04T13:21:50;32.70;;;25.40;;
9052;SDS011;4561;47.450;7.516;2023-03-04T13:32:44;33.17;;;24.90;;
9052;SDS011;4561;47.450;7.516;2023-03-04T13:36:06;33.07;;;25.57;;
9052;SDS011;4561;47.450;7.516;2023-03-04T13:39:46;29.73;;;23.77;;
9052;SDS011;4561;47.450;7.516;2023-03-04T13:43:43;32.43;;;25.30;;
9052;SDS011;4561;47.450;7.516;2023-03-04T13:47:08;31.57;;;24.80;;
9052;SDS011;4561;47.450;7.516;2023-03-04T13:50:44;34.80;;;27.00;;
9052;SDS011;4561;47.450;7.516;2023-03-04T13:57:52;29.40;;;24.07;;
9052;SDS011;4561;47.450;7.516;2023-03-04T14:01:25;31.33;;;25.27;;
9052;SDS011;4561;47.450;7.516;2023-03-04T14:08:18;34.37;;;25.87;;
9052;SDS011;4561;47.450;7.516;2023-03-04T14:11:39;34.10;;;26.03;;
9052;SDS011;4561;47.450;7.516;2023-03-04T14:15:03;36.10;;;26.70;;
9052;SDS011;4561;47.450;7.516;2023-03-04T14:18:33;34.00;;;27.37;;
9052;SDS011;4561;47.450;7.516;2023-03-04T14:21:53;35.80;;;28.60;;
9052;SDS011;4561;47.450;7.516;2023-03-04T14:25:32;38.90;;;29.73;;
9052;SDS011;4561;47.450;7.516;2023-03-04T14:28:56;35.67;;;26.90;;
9052;SDS011;4561;47.450;7.516;2023-03-04T14:32:21;34.90;;;27.30;;
9052;SDS011;4561;47.450;7.516;2023-03-04T14:35:45;35.87;;;28.07;;
9052;SDS011;4561;47.450;7.516;2023-03-04T14:39:14;36.43;;;29.23;;
9052;SDS011;4561;47.450;7.516;2023-03-04T14:42:40;35.80;;;28.37;;
9052;SDS011;4561;47.450;7.516;2023-03-04T14:46:04;36.37;;;28.23;;
9052;SDS011;4561;47.450;7.516;2023-03-04T14:49:27;34.87;;;26.70;;
9052;SDS011;4561;47.450;7.516;2023-03-04T14:56:42;32.37;;;25.40;;
9052;SDS011;4561;47.450;7.516;2023-03-04T15:03:39;33.13;;;25.70;;
9052;SDS011;4561;47.450;7.516;2023-03-04T15:07:02;34.30;;;25.80;;
9052;SDS011;4561;47.450;7.516;2023-03-04T15:10:24;31.30;;;24.10;;
9052;SDS011;4561;47.450;7.516;2023-03-04T15:13:51;31.63;;;25.20;;
9052;SDS011;4561;47.450;7.516;2023-03-04T15:21:22;32.57;;;24.23;;
9052;SDS011;4561;47.450;7.516;2023-03-04T15:24:59;28.73;;;23.33;;
9052;SDS011;4561;47.450;7.516;2023-03-04T15:28:20;34.43;;;25.07;;
9052;SDS011;4561;47.450;7.516;2023-03-04T15:31:41;34.13;;;26.73;;
9052;SDS011;4561;47.450;7.516;2023-03-04T15:35:02;31.87;;;26.30;;
9052;SDS011;4561;47.450;7.516;2023-03-04T15:38:26;30.37;;;25.40;;
9052;SDS011;4561;47.450;7.516;2023-03-04T15:41:48;33.47;;;24.43;;
9052;SDS011;4561;47.450;7.516;2023-03-04T15:45:19;34.10;;;26.27;;
9052;SDS011;4561;47.450;7.516;2023-03-04T15:48:48;29.77;;;23.70;;
9052;SDS011;4561;47.450;7.516;2023-03-04T15:52:14;33.70;;;24.97;;
9052;SDS011;4561;47.450;7.516;2023-03-04T15:55:36;33.20;;;25.97;;
9052;SDS011;4561;47.450;7.516;2023-03-04T15:59:11;36.60;;;27.13;;
9052;SDS011;4561;47.450;7.516;2023-03-04T16:02:32;35.23;;;27.70;;
9052;SDS011;4561;47.450;7.516;2023-03-04T16:05:53;32.67;;;25.50;;
9052;SDS011;4561;47.450;7.516;2023-03-04T16:09:14;33.97;;;27.43;;
9052;SDS011;4561;47.450;7.516;2023-03-04T16:12:36;35.87;;;26.27;;
9052;SDS011;4561;47.450;7.516;2023-03-04T16:15:57;33.00;;;25.77;;
9052;SDS011;4561;47.450;7.516;2023-03-04T16:19:17;36.60;;;26.30;;
9052;SDS011;4561;47.450;7.516;2023-03-04T16:22:37;34.60;;;26.93;;
9052;SDS011;4561;47.450;7.516;2023-03-04T16:26:01;36.93;;;28.07;;
9052;SDS011;4561;47.450;7.516;2023-03-04T16:29:21;37.40;;;27.43;;
9052;SDS011;4561;47.450;7.516;2023-03-04T16:32:42;36.97;;;28.43;;
9052;SDS011;4561;47.450;7.516;2023-03-04T16:36:02;33.43;;;26.67;;
9052;SDS011;4561;47.450;7.516;2023-03-04T16:39:27;38.60;;;28.60;;
9052;SDS011;4561;47.450;7.516;2023-03-04T16:42:48;34.50;;;25.77;;
9052;SDS011;4561;47.450;7.516;2023-03-04T16:46:11;34.73;;;27.60;;
9052;SDS011;4561;47.450;7.516;2023-03-04T16:49:33;39.30;;;27.73;;
9052;SDS011;4561;47.450;7.516;2023-03-04T16:52:56;36.20;;;27.57;;
9052;SDS011;4561;47.450;7.516;2023-03-04T16:56:17;31.37;;;25.97;;
9052;SDS011;4561;47.450;7.516;2023-03-04T16:59:40;32.80;;;25.87;;
9052;SDS011;4561;47.450;7.516;2023-03-04T17:03:01;33.07;;;26.03;;
9052;SDS011;4561;47.450;7.516;2023-03-04T17:06:22;34.50;;;27.40;;
9052;SDS011;4561;47.450;7.516;2023-03-04T17:09:46;33.13;;;25.20;;
9052;SDS011;4561;47.450;7.516;2023-03-04T17:13:07;33.20;;;26.07;;
9052;SDS011;4561;47.450;7.516;2023-03-04T17:16:30;34.37;;;26.63;;
9052;SDS011;4561;47.450;7.516;2023-03-04T17:19:50;32.20;;;23.67;;
9052;SDS011;4561;47.450;7.516;2023-03-04T17:23:11;33.47;;;25.47;;
9052;SDS011;4561;47.450;7.516;2023-03-04T17:26:31;34.37;;;25.43;;
9052;SDS011;4561;47.450;7.516;2023-03-04T17:29:51;30.67;;;23.80;;
9052;SDS011;4561;47.450;7.516;2023-03-04T17:33:12;30.97;;;24.97;;
9052;SDS011;4561;47.450;7.516;2023-03-04T17:36:32;33.07;;;26.10;;
9052;SDS011;4561;47.450;7.516;2023-03-04T17:39:55;32.17;;;25.83;;
9052;SDS011;4561;47.450;7.516;2023-03-04T17:43:16;40.73;;;31.40;;
9052;SDS011;4561;47.450;7.516;2023-03-04T17:46:36;41.27;;;32.37;;
9052;SDS011;4561;47.450;7.516;2023-03-04T17:49:59;45.03;;;36.50;;
9052;SDS011;4561;47.450;7.516;2023-03-04T17:53:20;45.07;;;34.87;;
9052;SDS011;4561;47.450;7.516;2023-03-04T17:56:43;45.33;;;35.53;;
9052;SDS011;4561;47.450;7.516;2023-03-04T18:00:06;49.03;;;36.13;;
9052;SDS011;4561;47.450;7.516;2023-03-04T18:03:29;45.93;;;36.10;;
9052;SDS011;4561;47.450;7.516;2023-03-04T18:06:53;46.03;;;34.40;;
9052;SDS011;4561;47.450;7.516;2023-03-04T18:10:13;44.63;;;35.30;;
9052;SDS011;4561;47.450;7.516;2023-03-04T18:13:42;47.23;;;35.73;;
9052;SDS011;4561;47.450;7.516;2023-03-04T18:17:03;48.47;;;37.17;;
9052;SDS011;4561;47.450;7.516;2023-03-04T18:20:26;51.60;;;36.17;;
9052;SDS011;4561;47.450;7.516;2023-03-04T18:23:46;49.60;;;35.90;;
9052;SDS011;4561;47.450;7.516;2023-03-04T18:27:07;52.93;;;37.70;;
9052;SDS011;4561;47.450;7.516;2023-03-04T18:30:29;49.27;;;37.53;;
9052;SDS011;4561;47.450;7.516;2023-03-04T18:33:52;50.23;;;37.97;;
9052;SDS011;4561;47.450;7.516;2023-03-04T18:37:13;51.27;;;37.23;;
9052;SDS011;4561;47.450;7.516;2023-03-04T18:40:36;54.63;;;38.50;;
9052;SDS011;4561;47.450;7.516;2023-03-04T18:43:57;52.37;;;37.93;;
9052;SDS011;4561;47.450;7.516;2023-03-04T18:47:21;54.93;;;37.80;;
9052;SDS011;4561;47.450;7.516;2023-03-04T18:50:42;48.70;;;38.30;;
9052;SDS011;4561;47.450;7.516;2023-03-04T18:54:05;53.10;;;39.17;;
9052;SDS011;4561;47.450;7.516;2023-03-04T18:57:26;51.53;;;37.73;;
9052;SDS011;4561;47.450;7.516;2023-03-04T19:00:48;51.37;;;38.03;;
9052;SDS011;4561;47.450;7.516;2023-03-04T19:04:09;57.77;;;39.10;;
9052;SDS011;4561;47.450;7.516;2023-03-04T19:07:30;49.33;;;36.93;;
9052;SDS011;4561;47.450;7.516;2023-03-04T19:10:51;51.63;;;36.63;;
9052;SDS011;4561;47.450;7.516;2023-03-04T19:14:11;50.53;;;38.27;;
9052;SDS011;4561;47.450;7.516;2023-03-04T19:17:32;51.67;;;36.57;;
9052;SDS011;4561;47.450;7.516;2023-03-04T19:20:57;55.63;;;39.67;;
9052;SDS011;4561;47.450;7.516;2023-03-04T19:24:18;53.10;;;37.90;;
9052;SDS011;4561;47.450;7.516;2023-03-04T19:27:38;52.47;;;37.57;;
9052;SDS011;4561;47.450;7.516;2023-03-04T19:31:08;54.47;;;37.80;;
9052;SDS011;4561;47.450;7.516;2023-03-04T19:34:32;52.90;;;37.03;;
9052;SDS011;4561;47.450;7.516;2023-03-04T19:37:52;54.23;;;37.70;;
9052;SDS011;4561;47.450;7.516;2023-03-04T19:41:13;55.00;;;38.07;;
9052;SDS011;4561;47.450;7.516;2023-03-04T19:44:35;56.30;;;38.37;;
9052;SDS011;4561;47.450;7.516;2023-03-04T19:47:56;57.63;;;38.13;;
9052;SDS011;4561;47.450;7.516;2023-03-04T19:51:19;52.30;;;35.87;;
9052;SDS011;4561;47.450;7.516;2023-03-04T19:54:41;55.23;;;35.63;;
9052;SDS011;4561;47.450;7.516;2023-03-04T19:58:01;52.83;;;35.77;;
9052;SDS011;4561;47.450;7.516;2023-03-04T20:01:26;53.50;;;36.80;;
9052;SDS011;4561;47.450;7.516;2023-03-04T20:04:48;51.37;;;35.70;;
9052;SDS011;4561;47.450;7.516;2023-03-04T20:08:08;55.93;;;36.30;;
9052;SDS011;4561;47.450;7.516;2023-03-04T20:11:29;53.37;;;36.30;;
9052;SDS011;4561;47.450;7.516;2023-03-04T20:14:50;49.57;;;34.77;;
9052;SDS011;4561;47.450;7.516;2023-03-04T20:18:10;54.00;;;37.03;;
9052;SDS011;4561;47.450;7.516;2023-03-04T20:21:33;53.33;;;36.63;;
9052;SDS011;4561;47.450;7.516;2023-03-04T20:24:54;55.67;;;36.30;;
9052;SDS011;4561;47.450;7.516;2023-03-04T20:28:15;53.53;;;35.17;;
9052;SDS011;4561;47.450;7.516;2023-03-04T20:31:36;53.77;;;36.13;;
9052;SDS011;4561;47.450;7.516;2023-03-04T20:34:58;53.53;;;35.53;;
9052;SDS011;4561;47.450;7.516;2023-03-04T20:38:18;56.17;;;35.73;;
9052;SDS011;4561;47.450;7.516;2023-03-04T20:41:41;58.00;;;35.97;;
9052;SDS011;4561;47.450;7.516;2023-03-04T20:45:07;51.03;;;33.87;;
9052;SDS011;4561;47.450;7.516;2023-03-04T20:48:28;49.90;;;34.13;;
9052;SDS011;4561;47.450;7.516;2023-03-04T20:51:49;53.00;;;34.63;;
9052;SDS011;4561;47.450;7.516;2023-03-04T20:55:10;54.20;;;35.43;;
9052;SDS011;4561;47.450;7.516;2023-03-04T20:58:30;54.33;;;35.60;;
9052;SDS011;4561;47.450;7.516;2023-03-04T21:01:51;56.57;;;34.57;;
9052;SDS011;4561;47.450;7.516;2023-03-04T21:05:11;55.00;;;35.53;;
9052;SDS011;4561;47.450;7.516;2023-03-04T21:08:32;51.13;;;33.97;;
9052;SDS011;4561;47.450;7.516;2023-03-04T21:11:52;51.20;;;33.80;;
9052;SDS011;4561;47.450;7.516;2023-03-04T21:15:15;52.17;;;33.80;;
9052;SDS011;4561;47.450;7.516;2023-03-04T21:18:35;55.30;;;34.47;;
9052;SDS011;4561;47.450;7.516;2023-03-04T21:21:56;48.47;;;32.80;;
9052;SDS011;4561;47.450;7.516;2023-03-04T21:25:19;56.13;;;34.47;;
9052;SDS011;4561;47.450;7.516;2023-03-04T21:28:44;50.53;;;32.67;;
9052;SDS011;4561;47.450;7.516;2023-03-04T21:32:09;57.10;;;33.80;;
9052;SDS011;4561;47.450;7.516;2023-03-04T21:35:32;48.37;;;31.33;;
9052;SDS011;4561;47.450;7.516;2023-03-04T21:38:52;49.00;;;31.77;;
9052;SDS011;4561;47.450;7.516;2023-03-04T21:42:13;48.60;;;31.33;;
9052;SDS011;4561;47.450;7.516;2023-03-04T21:45:33;48.13;;;30.93;;
9052;SDS011;4561;47.450;7.516;2023-03-04T21:48:56;49.10;;;31.87;;
9052;SDS011;4561;47.450;7.516;2023-03-04T21:52:19;47.50;;;30.70;;
9052;SDS011;4561;47.450;7.516;2023-03-04T21:55:40;47.30;;;31.00;;
9052;SDS011;4561;47.450;7.516;2023-03-04T21:59:01;47.07;;;31.40;;
9052;SDS011;4561;47.450;7.516;2023-03-04T22:02:24;49.13;;;31.20;;
9052;SDS011;4561;47.450;7.516;2023-03-04T22:05:47;42.27;;;27.97;;
9052;SDS011;4561;47.450;7.516;2023-03-04T22:09:08;43.70;;;28.50;;
9052;SDS011;4561;47.450;7.516;2023-03-04T22:12:31;45.63;;;28.47;;
9052;SDS011;4561;47.450;7.516;2023-03-04T22:15:55;42.93;;;28.13;;
9052;SDS011;4561;47.450;7.516;2023-03-04T22:19:16;42.07;;;26.20;;
9052;SDS011;4561;47.450;7.516;2023-03-04T22:22:37;43.17;;;26.97;;